Time;durP1;ratioP1;P1;durP2;ratioP2;P2;SDS_P1;SDS_P2;PMS_P1;PMS_P2;Temp;Humidity;BMP_temperature;BMP_pressure;BME280_temperature;BME280_humidity;BME280_pressure;Samples;Min_cycle;Max_cycle;Signal;HPM_P1;HPM_P2
2021/07/18 00:03:44;;;;;;;;;7.00;6.75;;;;;22.74;56.48;101613.78;5012345;28;45731;-80
2021/07/18 00:06:10;;;;;;;;;7.25;6.00;;;;;22.74;56.92;101616.47;5015083;28;45779;-80
2021/07/18 00:08:35;;;;;;;;;9.50;7.00;;;;;22.72;56.56;101612.28;5015105;28;45852;-80
2021/07/18 00:11:01;;;;;;;;;7.50;7.50;;;;;22.71;56.65;101614.13;5014303;28;46274;-80
2021/07/18 00:13:26;;;;;;;;;7.75;7.00;;;;;22.64;56.79;101606.88;5014567;28;45714;-79
2021/07/18 00:15:52;;;;;;;;;8.25;7.75;;;;;22.55;57.39;101595.34;5014957;28;45690;-79
2021/07/18 00:18:18;;;;;;;;;8.00;7.00;;;;;22.62;57.68;101608.91;5014707;28;45950;-79
2021/07/18 00:20:44;;;;;;;;;10.00;9.00;;;;;22.58;57.66;101609.22;5014434;28;46079;-80
2021/07/18 00:23:10;;;;;;;;;10.25;9.50;;;;;22.47;57.76;101600.66;5014612;28;45730;-78
2021/07/18 00:25:35;;;;;;;;;12.25;10.50;;;;;22.53;57.14;101616.88;5015013;28;45642;-79
2021/07/18 00:28:02;;;;;;;;;10.75;10.00;;;;;22.36;57.16;101595.59;5014822;28;45733;-79
2021/07/18 00:33:50;;;;;;;;;9.00;9.00;;;;;22.32;57.59;101597.78;5014699;28;45718;-79
2021/07/18 00:36:16;;;;;;;;;7.75;7.00;;;;;22.38;57.96;101610.47;5015398;28;45544;-79
2021/07/18 00:38:41;;;;;;;;;8.25;7.75;;;;;22.37;58.31;101619.47;5014578;28;46327;-79
2021/07/18 00:41:07;;;;;;;;;10.00;8.00;;;;;22.34;57.76;101613.63;5014203;28;46035;-79
2021/07/18 00:43:32;;;;;;;;;12.50;7.50;;;;;22.22;58.15;101610.41;4998210;28;45583;-79
2021/07/18 00:49:20;;;;;;;;;7.00;6.75;;;;;22.13;58.07;101604.19;5017500;28;45994;-78
2021/07/18 00:51:45;;;;;;;;;7.50;6.00;;;;;22.12;58.41;101613.22;5017080;28;45916;-78
2021/07/18 00:54:12;;;;;;;;;9.25;7.75;;;;;22.12;58.32;101612.38;5017952;28;45604;-79
2021/07/18 00:56:38;;;;;;;;;6.75;6.75;;;;;22.10;58.71;101614.34;5016657;28;45756;-78
2021/07/18 00:59:04;;;;;;;;;8.50;7.00;;;;;22.07;58.54;101612.00;5014398;28;46289;-80
2021/07/18 01:01:30;;;;;;;;;5.25;5.25;;;;;22.03;58.95;101621.31;5013404;28;46297;-78
2021/07/18 01:03:56;;;;;;;;;7.75;7.75;;;;;21.77;58.79;101566.09;5013501;28;45785;-79
2021/07/18 01:06:22;;;;;;;;;8.25;6.50;;;;;21.80;58.55;101577.47;4995791;28;45945;-78
2021/07/18 01:08:47;;;;;;;;;8.00;7.75;;;;;21.99;58.87;101612.78;5013897;28;46368;-80
2021/07/18 01:11:13;;;;;;;;;7.75;6.25;;;;;21.97;58.80;101617.44;5013638;28;45698;-80
2021/07/18 01:13:39;;;;;;;;;10.25;7.50;;;;;21.80;59.23;101598.81;5013856;28;45580;-80
2021/07/18 01:19:28;;;;;;;;;6.25;6.25;;;;;21.65;59.44;101593.19;5013511;28;45715;-80
2021/07/18 01:22:02;;;;;;;;;7.00;7.00;;;;;21.80;59.17;101617.50;4995776;28;46276;-79
2021/07/18 01:24:29;;;;;;;;;10.00;9.25;;;;;21.69;59.50;101607.91;5013651;28;45680;-80
2021/07/18 01:26:55;;;;;;;;;6.00;6.00;;;;;21.75;59.65;101624.13;5012401;28;45646;-79
2021/07/18 01:29:22;;;;;;;;;8.00;8.00;;;;;21.74;59.66;101614.47;5013431;28;46226;-80
2021/07/18 01:31:47;;;;;;;;;9.75;8.00;;;;;21.60;59.45;101599.00;5013209;28;45599;-79
2021/07/18 01:34:13;;;;;;;;;9.25;8.00;;;;;21.56;59.86;101591.47;5013572;28;45644;-80
2021/07/18 01:36:39;;;;;;;;;7.25;7.00;;;;;21.60;59.98;101608.84;5014118;28;45708;-79
2021/07/18 01:39:08;;;;;;;;;8.00;7.00;;;;;21.48;59.97;101589.59;5013671;28;46341;-79
2021/07/18 01:41:34;;;;;;;;;7.00;5.25;;;;;21.47;60.34;101592.44;5013281;28;46276;-78
2021/07/18 01:44:00;;;;;;;;;9.00;7.00;;;;;21.55;60.37;101614.63;5013356;28;45761;-79
2021/07/18 01:46:25;;;;;;;;;7.50;7.50;;;;;21.29;60.42;101574.63;5013432;28;45555;-79
2021/07/18 01:48:52;;;;;;;;;8.75;7.50;;;;;21.34;60.56;101585.66;5013255;28;45531;-79
2021/07/18 01:51:22;;;;;;;;;10.75;9.50;;;;;21.45;60.28;101610.41;5013574;28;45957;-80
2021/07/18 01:53:53;;;;;;;;;8.50;7.75;;;;;21.42;60.62;101603.56;5016628;28;45822;-80
2021/07/18 01:56:19;;;;;;;;;7.00;7.00;;;;;21.40;60.53;101600.19;5016922;28;45854;-80
2021/07/18 01:58:47;;;;;;;;;6.00;6.00;;;;;21.38;60.59;101594.16;5016493;28;46648;-79
2021/07/18 02:04:35;;;;;;;;;9.75;8.75;;;;;21.33;60.76;101589.31;5008507;28;45691;-78
2021/07/18 02:07:04;;;;;;;;;10.00;7.50;;;;;21.28;60.43;101590.75;4999114;28;45825;-79
2021/07/18 02:09:30;;;;;;;;;7.00;7.00;;;;;21.23;60.68;101585.06;5016853;28;46814;-79
2021/07/18 02:11:55;;;;;;;;;7.75;7.75;;;;;21.27;60.85;101597.09;5016617;28;45922;-79
2021/07/18 02:14:22;;;;;;;;;8.25;8.25;;;;;21.24;60.94;101602.72;5016621;28;45734;-79
2021/07/18 02:16:52;;;;;;;;;8.75;8.25;;;;;20.97;60.94;101560.16;4998862;28;45600;-79
2021/07/18 02:19:18;;;;;;;;;10.00;7.50;;;;;21.02;61.27;101572.03;5016448;28;46539;-80
2021/07/18 02:21:43;;;;;;;;;8.25;8.00;;;;;21.15;61.23;101593.00;5016200;28;46339;-80
2021/07/18 02:24:10;;;;;;;;;8.00;8.00;;;;;21.09;61.16;101590.91;5016398;28;45622;-79
2021/07/18 02:26:37;;;;;;;;;7.50;6.75;;;;;21.10;61.28;101595.25;5016883;28;45545;-79
2021/07/18 02:29:04;;;;;;;;;11.25;8.00;;;;;21.06;61.34;101592.03;5016616;28;45619;-79
2021/07/18 02:34:50;;;;;;;;;8.50;7.25;;;;;20.97;61.57;101595.63;5016626;28;45690;-80
2021/07/18 02:37:16;;;;;;;;;7.00;6.75;;;;;20.96;61.57;101593.94;5017208;28;45589;-79
2021/07/18 02:39:41;;;;;;;;;8.75;8.50;;;;;20.84;61.84;101577.34;5016737;28;46611;-79
2021/07/18 02:42:06;;;;;;;;;10.00;9.00;;;;;20.89;61.70;101596.38;5018101;28;46236;-79
2021/07/18 02:44:32;;;;;;;;;7.75;7.50;;;;;20.80;61.98;101583.97;5020064;28;45516;-79
2021/07/18 02:46:57;;;;;;;;;8.00;7.00;;;;;20.87;61.92;101595.72;5022926;28;45740;-79
2021/07/18 02:49:23;;;;;;;;;8.00;8.00;;;;;20.85;61.95;101595.00;5023191;28;45543;-80
2021/07/18 02:51:48;;;;;;;;;8.00;8.00;;;;;20.77;62.01;101584.28;5021427;28;46142;-79
2021/07/18 02:54:13;;;;;;;;;8.00;8.00;;;;;20.61;61.75;101552.16;5020600;28;45850;-78
2021/07/18 02:56:39;;;;;;;;;7.25;7.25;;;;;20.55;62.29;101552.75;5020667;28;45505;-80
2021/07/18 02:59:04;;;;;;;;;9.00;8.25;;;;;20.78;62.10;101585.13;5017865;28;45602;-79
2021/07/18 03:04:52;;;;;;;;;11.00;9.25;;;;;20.65;62.05;101566.00;5011860;28;46107;-79
2021/07/18 03:07:17;;;;;;;;;8.50;7.00;;;;;20.71;62.21;101579.56;5016261;28;45573;-79
2021/07/18 03:09:42;;;;;;;;;9.25;8.25;;;;;20.68;62.33;101577.19;5015775;28;45551;-80
2021/07/18 03:12:08;;;;;;;;;8.25;7.75;;;;;20.71;62.17;101584.88;5015653;28;46171;-80
2021/07/18 03:14:34;;;;;;;;;9.25;8.00;;;;;20.70;62.16;101580.53;5015604;28;45658;-79
2021/07/18 03:16:59;;;;;;;;;7.50;6.50;;;;;20.65;62.14;101563.34;5015914;28;45478;-79
2021/07/18 03:19:25;;;;;;;;;10.75;8.75;;;;;20.43;62.37;101535.31;5015846;28;46116;-79
2021/07/18 03:21:50;;;;;;;;;7.50;6.50;;;;;20.62;62.70;101569.78;5015675;28;45788;-80
2021/07/18 03:24:16;;;;;;;;;10.25;8.00;;;;;20.68;62.43;101584.34;5015747;28;45915;-79
2021/07/18 03:26:44;;;;;;;;;9.50;8.50;;;;;20.60;62.40;101570.94;5016213;28;45929;-79
2021/07/18 03:29:10;;;;;;;;;7.75;7.25;;;;;20.64;62.21;101578.47;5015616;28;45749;-80
2021/07/18 03:34:57;;;;;;;;;9.50;8.25;;;;;20.62;62.07;101574.31;5015318;28;45843;-79
2021/07/18 03:37:23;;;;;;;;;8.00;6.25;;;;;20.63;62.27;101579.47;5015668;28;45733;-80
2021/07/18 03:39:48;;;;;;;;;7.50;7.25;;;;;20.60;62.51;101582.44;5015790;28;46838;-80
2021/07/18 03:42:14;;;;;;;;;10.25;8.75;;;;;20.60;62.17;101581.59;5016889;28;45748;-80
2021/07/18 03:44:40;;;;;;;;;10.00;9.00;;;;;20.49;62.67;101570.19;5017523;28;45618;-81
2021/07/18 03:47:06;;;;;;;;;7.00;6.00;;;;;20.44;62.65;101561.81;4999512;28;46016;-80
2021/07/18 03:49:32;;;;;;;;;6.75;6.75;;;;;20.55;62.69;101574.06;5016677;28;45630;-79
2021/07/18 03:51:58;;;;;;;;;11.00;9.00;;;;;20.46;62.67;101553.63;4999709;28;47479;-80
2021/07/18 03:54:23;;;;;;;;;8.75;8.25;;;;;20.23;62.95;101531.91;4999763;28;46058;-78
2021/07/18 03:56:49;;;;;;;;;10.00;9.00;;;;;20.51;62.82;101581.50;5016656;28;45741;-81
2021/07/18 03:59:14;;;;;;;;;10.00;10.00;;;;;20.50;62.80;101579.00;5015819;28;46350;-80
2021/07/18 04:05:02;;;;;;;;;7.00;6.00;;;;;20.38;62.63;101564.22;5014619;28;45513;-79
2021/07/18 04:07:32;;;;;;;;;12.00;8.00;;;;;20.41;62.73;101566.56;5017623;28;45505;-79
2021/07/18 04:10:00;;;;;;;;;7.75;7.50;;;;;20.45;62.85;101579.47;5015177;28;45690;-79
2021/07/18 04:12:26;;;;;;;;;8.25;8.00;;;;;20.42;62.90;101573.56;5014959;28;47154;-79
2021/07/18 04:14:51;;;;;;;;;7.00;7.00;;;;;20.43;62.75;101575.25;5015752;28;45619;-79
2021/07/18 04:17:17;;;;;;;;;9.75;9.50;;;;;20.20;62.93;101540.19;5018323;28;45438;-79
2021/07/18 04:19:42;;;;;;;;;10.00;8.25;;;;;20.22;62.90;101553.34;5020432;28;46737;-78
2021/07/18 04:22:08;;;;;;;;;7.00;7.00;;;;;20.32;63.31;101572.78;5023593;28;45560;-79
2021/07/18 04:24:33;;;;;;;;;7.50;7.50;;;;;20.19;63.20;101553.66;5023364;28;45536;-80
2021/07/18 04:27:00;;;;;;;;;10.50;8.75;;;;;20.33;63.25;101591.28;5021124;28;45703;-79
2021/07/18 04:29:26;;;;;;;;;9.00;8.00;;;;;20.16;63.47;101564.56;5019662;28;46487;-79
2021/07/18 04:35:14;;;;;;;;;10.50;8.00;;;;;20.17;63.46;101574.25;5018422;28;45746;-79
2021/07/18 04:37:40;;;;;;;;;10.00;9.50;;;;;20.15;63.24;101571.72;5018036;28;45682;-79
2021/07/18 04:40:06;;;;;;;;;9.75;8.75;;;;;20.21;63.48;101589.75;5017575;28;46852;-79
2021/07/18 04:42:31;;;;;;;;;11.00;9.50;;;;;20.19;63.63;101594.38;5014491;28;46078;-79
2021/07/18 04:44:57;;;;;;;;;10.25;9.75;;;;;20.09;63.49;101586.44;5014913;28;45973;-80
2021/07/18 04:47:23;;;;;;;;;9.50;8.25;;;;;20.15;63.80;101581.53;5015671;28;45642;-80
2021/07/18 04:49:50;;;;;;;;;10.25;7.75;;;;;20.09;63.53;101583.78;5016639;28;46520;-79
2021/07/18 04:52:17;;;;;;;;;9.00;8.25;;;;;20.15;63.49;101592.16;5017544;28;46535;-80
2021/07/18 04:54:42;;;;;;;;;10.75;9.00;;;;;20.13;63.77;101591.50;5020389;28;45516;-80
2021/07/18 04:57:08;;;;;;;;;8.50;7.50;;;;;19.98;63.84;101583.97;5020429;28;45489;-79
2021/07/18 04:59:33;;;;;;;;;7.50;6.25;;;;;20.09;63.71;101607.75;5001669;28;47305;-81
2021/07/18 05:05:21;;;;;;;;;8.00;7.50;;;;;20.00;64.32;101605.97;5012389;28;45847;-80
2021/07/18 05:07:54;;;;;;;;;7.00;5.50;;;;;19.93;63.82;101598.69;5014601;28;45553;-79
2021/07/18 05:10:22;;;;;;;;;9.25;7.25;;;;;19.90;64.03;101601.66;5014093;28;46446;-79
2021/07/18 05:12:50;;;;;;;;;9.25;8.75;;;;;19.93;64.23;101615.50;5013943;28;46041;-79
2021/07/18 05:15:16;;;;;;;;;8.50;7.50;;;;;19.95;64.05;101621.53;5014300;28;45710;-79
2021/07/18 05:17:42;;;;;;;;;6.75;5.75;;;;;19.93;64.20;101619.97;5014803;28;45810;-79
2021/07/18 05:20:10;;;;;;;;;8.00;6.75;;;;;19.90;64.27;101609.63;5014215;28;46391;-79
2021/07/18 05:22:36;;;;;;;;;7.75;6.75;;;;;19.72;64.01;101579.44;5014213;28;46765;-79
2021/07/18 05:25:05;;;;;;;;;8.50;7.00;;;;;19.93;64.46;101615.50;5014112;28;45556;-78
2021/07/18 05:27:30;;;;;;;;;7.25;7.25;;;;;19.79;64.03;101596.50;5017066;28;45714;-79
2021/07/18 05:29:56;;;;;;;;;7.50;7.00;;;;;19.88;64.27;101607.13;5017842;28;46902;-79
2021/07/18 05:35:56;;;;;;;;;10.00;9.00;;;;;19.89;64.24;101606.13;5017327;28;45617;-79
2021/07/18 05:38:23;;;;;;;;;8.50;7.00;;;;;19.95;64.20;101607.38;5018062;28;45580;-78
2021/07/18 05:40:48;;;;;;;;;6.75;6.00;;;;;19.94;64.40;101614.50;5017367;28;45802;-79
2021/07/18 05:43:14;;;;;;;;;7.00;7.00;;;;;19.93;64.83;101610.19;5017136;28;46117;-79
2021/07/18 05:45:39;;;;;;;;;7.00;7.00;;;;;19.83;64.47;101600.53;5017225;28;45975;-79
2021/07/18 05:48:05;;;;;;;;;9.25;8.00;;;;;19.92;64.30;101613.81;5017519;28;45655;-80
2021/07/18 05:50:30;;;;;;;;;7.00;6.00;;;;;19.93;64.24;101604.00;5016925;28;45637;-79
2021/07/18 05:52:56;;;;;;;;;7.25;6.50;;;;;19.93;64.31;101607.50;5017061;28;45902;-79
2021/07/18 05:55:23;;;;;;;;;6.75;6.75;;;;;19.83;64.64;101592.56;5017073;28;45596;-79
2021/07/18 05:57:49;;;;;;;;;8.00;8.00;;;;;19.98;64.59;101617.72;5017286;28;45572;-79
2021/07/18 06:00:15;;;;;;;;;6.00;6.00;;;;;19.97;64.28;101611.56;5016891;28;45692;-79
2021/07/18 06:02:41;;;;;;;;;7.25;7.25;;;;;19.96;64.35;101609.91;4998556;28;46432;-79
2021/07/18 06:05:08;;;;;;;;;9.00;7.75;;;;;19.87;63.98;101589.47;5016933;28;45858;-79
2021/07/18 06:07:33;;;;;;;;;8.25;7.50;;;;;19.99;64.06;101614.91;5016719;28;45618;-79
2021/07/18 06:10:00;;;;;;;;;7.00;7.00;;;;;20.03;64.51;101621.63;5016448;28;45749;-79
2021/07/18 06:12:26;;;;;;;;;14.00;9.75;;;;;19.95;64.58;101607.38;5016412;28;46447;-79
2021/07/18 06:14:51;;;;;;;;;8.00;7.75;;;;;20.03;64.65;101621.63;5016927;28;45653;-80
2021/07/18 06:20:38;;;;;;;;;6.00;5.25;;;;;20.06;64.31;101620.50;5016023;28;45585;-81
2021/07/18 06:23:07;;;;;;;;;11.00;7.00;;;;;20.10;64.22;101621.88;5016470;28;46469;-78
2021/07/18 06:25:32;;;;;;;;;7.75;6.25;;;;;19.97;64.33;101598.25;5016375;28;45620;-80
2021/07/18 06:27:58;;;;;;;;;7.00;7.00;;;;;20.06;64.15;101602.72;5016536;28;45956;-80
2021/07/18 06:30:23;;;;;;;;;6.50;5.75;;;;;20.13;64.34;101619.75;5015884;28;46222;-79
2021/07/18 06:32:49;;;;;;;;;8.50;8.00;;;;;20.02;64.22;101589.84;5016349;28;45894;-80
2021/07/18 06:35:14;;;;;;;;;7.25;6.50;;;;;20.26;64.00;101624.75;5016424;28;45566;-80
2021/07/18 06:37:40;;;;;;;;;7.25;7.25;;;;;20.29;64.17;101624.47;5015718;28;45525;-79
2021/07/18 06:40:06;;;;;;;;;6.25;5.75;;;;;20.33;63.97;101631.22;5015592;28;45572;-79
2021/07/18 06:42:33;;;;;;;;;7.50;6.75;;;;;20.36;64.09;101622.91;5015922;28;46143;-79
2021/07/18 06:44:59;;;;;;;;;9.00;6.25;;;;;20.30;64.01;101614.66;5016444;28;45627;-79
2021/07/18 06:50:46;;;;;;;;;8.00;6.25;;;;;20.40;63.88;101628.81;5016018;28;45461;-79
2021/07/18 06:53:11;;;;;;;;;7.00;6.25;;;;;20.44;63.98;101630.19;5016061;28;45927;-80
2021/07/18 06:55:37;;;;;;;;;6.00;6.00;;;;;20.48;64.00;101634.22;5016226;28;45738;-79
2021/07/18 06:58:02;;;;;;;;;6.00;6.00;;;;;20.46;63.83;101615.72;5016240;28;45666;-79
2021/07/18 07:00:28;;;;;;;;;6.00;6.00;;;;;20.57;63.93;101630.66;5016029;28;46474;-79
2021/07/18 07:02:53;;;;;;;;;5.75;5.50;;;;;20.48;64.15;101610.25;5020642;28;45975;-80
2021/07/18 07:05:18;;;;;;;;;8.00;6.50;;;;;20.62;63.79;101628.38;5020126;28;45868;-80
2021/07/18 07:07:47;;;;;;;;;9.50;5.75;;;;;20.68;64.04;101632.28;5022905;28;45618;-79
2021/07/18 07:10:14;;;;;;;;;8.00;6.25;;;;;20.73;63.77;101628.19;5022569;28;46589;-80
2021/07/18 07:12:40;;;;;;;;;8.75;7.00;;;;;20.69;63.71;101617.97;5022352;28;46584;-80
2021/07/18 07:15:06;;;;;;;;;6.00;6.00;;;;;20.81;63.55;101625.63;5017943;28;45750;-79
2021/07/18 07:20:54;;;;;;;;;7.00;5.25;;;;;20.87;63.54;101627.69;5015743;28;46220;-78
2021/07/18 07:23:19;;;;;;;;;7.25;6.25;;;;;20.87;63.57;101618.84;5015879;28;45929;-81
2021/07/18 07:25:45;;;;;;;;;7.25;6.00;;;;;20.93;63.47;101624.41;5016022;28;45738;-79
2021/07/18 07:28:10;;;;;;;;;7.00;6.00;;;;;20.99;63.42;101622.97;5016509;28;45680;-80
2021/07/18 07:30:36;;;;;;;;;6.00;6.00;;;;;20.99;63.90;101609.66;5015423;28;47193;-82
2021/07/18 07:33:02;;;;;;;;;5.00;5.00;;;;;21.13;63.45;101617.09;5015686;28;45955;-80
2021/07/18 07:35:27;;;;;;;;;6.00;5.50;;;;;21.18;63.18;101622.84;5015610;28;45565;-80
2021/07/18 07:37:53;;;;;;;;;7.00;5.00;;;;;21.25;63.24;101625.75;5015495;28;45761;-80
2021/07/18 07:40:19;;;;;;;;;6.00;5.25;;;;;21.30;62.96;101632.28;4997060;28;46572;-80
2021/07/18 07:42:45;;;;;;;;;5.50;5.25;;;;;21.34;63.20;101633.66;5015367;28;46071;-81
2021/07/18 07:45:11;;;;;;;;;6.00;5.00;;;;;21.22;63.04;101602.88;5015508;28;45656;-80
2021/07/18 07:51:12;;;;;;;;;4.00;4.00;;;;;21.52;62.66;101630.13;5015087;28;46005;-79
2021/07/18 07:53:38;;;;;;;;;5.75;5.00;;;;;21.40;62.68;101602.88;5015520;28;46095;-80
2021/07/18 07:56:03;;;;;;;;;6.75;6.00;;;;;21.44;62.87;101603.38;5015490;28;45663;-81
2021/07/18 07:58:30;;;;;;;;;6.00;5.00;;;;;21.62;62.43;101622.88;5015557;28;45703;-80
2021/07/18 08:00:55;;;;;;;;;5.00;4.25;;;;;21.69;62.72;101635.44;4996747;28;48190;-80
2021/07/18 08:03:21;;;;;;;;;4.00;4.00;;;;;21.73;62.30;101628.78;5015026;28;45850;-80
2021/07/18 08:05:48;;;;;;;;;7.75;6.25;;;;;21.77;62.32;101627.47;5014556;28;45679;-80
2021/07/18 08:08:13;;;;;;;;;5.00;5.00;;;;;21.83;62.20;101626.00;5015156;28;45615;-81
2021/07/18 08:10:39;;;;;;;;;9.25;5.00;;;;;21.74;62.13;101598.44;5015103;28;46463;-79
2021/07/18 08:13:05;;;;;;;;;4.75;4.75;;;;;21.78;62.29;101594.47;5014956;28;46075;-79
2021/07/18 08:15:31;;;;;;;;;4.00;4.00;;;;;21.96;61.86;101621.13;5015640;28;45632;-80
2021/07/18 08:21:18;;;;;;;;;3.00;2.50;;;;;22.11;61.48;101616.03;5014411;28;45926;-81
2021/07/18 08:23:49;;;;;;;;;2.75;2.50;;;;;22.15;61.06;101618.22;5014996;28;45951;-78
2021/07/18 08:26:15;;;;;;;;;3.50;3.25;;;;;22.16;61.14;101613.72;5014979;28;45630;-81
2021/07/18 08:28:41;;;;;;;;;3.25;3.00;;;;;;;;5015039;28;45544;-79
2021/07/18 08:31:06;;;;;;;;;4.00;3.00;;;;;22.27;60.98;101588.56;5014688;28;45545;-80
2021/07/18 08:33:32;;;;;;;;;2.75;2.75;;;;;22.39;60.29;101612.16;5014480;28;45714;-80
2021/07/18 08:35:57;;;;;;;;;3.00;3.00;;;;;22.37;60.50;101595.44;5014716;28;45702;-80
2021/07/18 08:38:22;;;;;;;;;4.00;3.00;;;;;22.49;60.54;101607.53;4997138;28;45850;-80
2021/07/18 08:40:49;;;;;;;;;4.00;3.00;;;;;22.55;60.64;101609.53;5015064;28;46229;-79
2021/07/18 08:43:14;;;;;;;;;3.00;3.00;;;;;22.62;59.70;101614.25;5014926;28;46240;-80
2021/07/18 08:45:40;;;;;;;;;4.00;3.50;;;;;22.58;59.92;101598.53;5015332;28;45641;-80
2021/07/18 08:51:27;;;;;;;;;2.25;2.25;;;;;22.75;58.80;101601.25;5013617;28;45767;-80
2021/07/18 08:53:54;;;;;;;;;4.00;3.00;;;;;22.71;58.68;101592.75;5013996;28;45888;-80
2021/07/18 08:56:22;;;;;;;;;3.75;3.75;;;;;22.87;58.67;101599.97;5014187;28;45555;-80
2021/07/18 08:58:48;;;;;;;;;3.75;3.50;;;;;22.93;58.49;101599.31;5014423;28;45591;-81
2021/07/18 09:01:13;;;;;;;;;2.00;2.00;;;;;22.93;58.53;101583.28;5013008;28;45570;-80
2021/07/18 09:03:39;;;;;;;;;2.50;2.50;;;;;23.04;58.06;101585.63;5014477;28;45995;-79
2021/07/18 09:06:10;;;;;;;;;2.00;2.00;;;;;23.03;57.79;101586.63;5014009;28;45702;-80
2021/07/18 09:08:46;;;;;;;;;2.25;2.25;;;;;23.04;57.85;101584.78;5014567;28;45548;-80
2021/07/18 09:11:23;;;;;;;;;2.00;2.00;;;;;23.14;57.76;101580.94;5018518;28;46782;-80
2021/07/18 09:14:04;;;;;;;;;2.50;2.25;;;;;23.26;57.67;101584.97;5019569;28;46069;-79
2021/07/18 09:16:31;;;;;;;;;2.25;2.00;;;;;23.34;56.98;101592.97;5020844;28;45562;-80
2021/07/18 09:19:26;;;;;;;;;4.25;2.25;;;;;23.41;57.16;101587.78;5019561;28;45812;-80
2021/07/18 09:21:58;;;;;;;;;3.00;2.00;;;;;23.47;57.12;101592.50;5017994;28;45732;-81
2021/07/18 09:24:32;;;;;;;;;3.00;3.00;;;;;23.55;57.37;101584.44;5016586;28;45893;-80
2021/07/18 09:27:11;;;;;;;;;2.50;2.50;;;;;23.61;56.80;101582.94;5014571;28;45782;-80
2021/07/18 09:29:42;;;;;;;;;2.75;2.00;;;;;23.66;56.82;101575.22;5013893;28;45742;-80
2021/07/18 09:32:15;;;;;;;;;5.50;3.00;;;;;23.73;56.41;101577.06;5013335;28;45930;-80
2021/07/18 09:34:44;;;;;;;;;4.50;2.75;;;;;23.63;56.21;101552.34;5013781;28;46971;-81
2021/07/18 09:37:13;;;;;;;;;2.00;2.00;;;;;23.82;55.78;101578.69;5013632;28;45723;-80
2021/07/18 09:39:48;;;;;;;;;5.00;3.00;;;;;23.93;55.30;101573.97;5013957;28;45751;-81
2021/07/18 09:42:34;;;;;;;;;2.00;2.00;;;;;24.00;54.90;101578.50;5013307;28;46575;-80
2021/07/18 09:45:01;;;;;;;;;3.75;2.00;;;;;24.02;53.94;101578.31;5013093;28;45616;-81
2021/07/18 09:47:27;;;;;;;;;1.75;1.00;;;;;24.05;53.24;101570.78;5014013;28;45685;-80
2021/07/18 09:49:53;;;;;;;;;2.75;2.00;;;;;24.09;54.00;101572.09;5013563;28;45900;-80
2021/07/18 09:52:22;;;;;;;;;2.00;1.50;;;;;24.18;53.35;101568.38;5013517;28;46383;-80
2021/07/18 09:54:50;;;;;;;;;2.00;2.00;;;;;24.28;53.16;101575.41;5013827;28;46157;-81
2021/07/18 09:57:37;;;;;;;;;2.75;2.75;;;;;24.34;53.88;101570.19;5013452;28;45607;-81
2021/07/18 10:00:10;;;;;;;;;3.00;2.25;;;;;24.41;53.34;101568.44;4995354;28;46028;-81
2021/07/18 10:02:35;;;;;;;;;2.75;2.50;;;;;24.37;52.80;101563.63;5013359;28;45593;-79
2021/07/18 10:05:02;;;;;;;;;3.00;2.00;;;;;24.07;52.99;101501.81;5013197;28;45750;-81
2021/07/18 10:07:33;;;;;;;;;2.25;2.00;;;;;24.54;52.76;101568.72;5013669;28;45683;-81
2021/07/18 10:10:00;;;;;;;;;2.75;2.75;;;;;24.59;52.48;101561.00;5013380;28;45858;-81
2021/07/18 10:12:25;;;;;;;;;1.75;1.75;;;;;24.69;52.37;101566.13;5014622;28;46345;-80
2021/07/18 10:14:52;;;;;;;;;2.50;2.00;;;;;24.71;52.15;101564.09;5017114;28;46005;-81
2021/07/18 10:17:18;;;;;;;;;2.00;2.00;;;;;24.80;52.05;101573.75;5017061;28;45820;-82
2021/07/18 10:19:44;;;;;;;;;2.00;2.00;;;;;24.83;52.14;101570.69;5016943;28;45675;-80
2021/07/18 10:22:10;;;;;;;;;1.75;1.50;;;;;24.75;51.86;101529.72;5017030;28;45674;-80
2021/07/18 10:24:37;;;;;;;;;2.00;2.00;;;;;24.72;51.68;101525.56;5016695;28;45936;-82
2021/07/18 10:27:04;;;;;;;;;3.50;2.75;;;;;25.01;51.06;101573.13;5016900;28;45422;-80
2021/07/18 10:29:31;;;;;;;;;2.00;2.00;;;;;25.07;50.39;101569.72;5016444;28;45738;-80
2021/07/18 10:32:03;;;;;;;;;3.00;3.00;;;;;25.09;49.92;101551.63;5016021;28;45881;-80
2021/07/18 10:34:30;;;;;;;;;4.00;4.00;;;;;25.12;49.72;101553.09;5016530;28;46199;-80
2021/07/18 10:36:56;;;;;;;;;2.25;2.25;;;;;25.17;50.63;101556.06;5016341;28;45523;-80
2021/07/18 10:39:39;;;;;;;;;3.50;3.00;;;;;25.25;49.43;101556.00;5016827;28;45677;-80
2021/07/18 10:42:14;;;;;;;;;3.00;3.00;;;;;25.29;48.92;101549.25;5016062;28;45614;-80
2021/07/18 10:44:46;;;;;;;;;3.75;3.00;;;;;25.36;49.39;101551.03;5016325;28;46448;-80
2021/07/18 10:47:12;;;;;;;;;3.00;2.50;;;;;25.41;48.88;101547.78;5016471;28;45698;-81
2021/07/18 10:49:54;;;;;;;;;3.00;3.00;;;;;25.47;48.49;101547.06;4998312;28;45597;-82
2021/07/18 10:52:23;;;;;;;;;4.00;4.00;;;;;25.48;48.02;101544.19;5016065;28;46716;-82
2021/07/18 10:54:49;;;;;;;;;3.75;3.25;;;;;25.44;48.16;101515.22;5015390;28;46703;-81
2021/07/18 10:57:21;;;;;;;;;5.00;4.00;;;;;25.62;47.91;101534.53;5016081;28;45727;-81
2021/07/18 10:59:46;;;;;;;;;5.00;4.00;;;;;25.59;47.47;101520.66;5016542;28;45767;-79
2021/07/18 11:02:32;;;;;;;;;3.00;3.00;;;;;25.73;48.00;101539.44;5016444;28;45678;-81
2021/07/18 11:04:58;;;;;;;;;4.50;4.00;;;;;25.70;47.34;101522.84;5016383;28;45541;-81
2021/07/18 11:07:32;;;;;;;;;5.75;4.00;;;;;25.83;47.45;101541.81;5016487;28;45742;-80
2021/07/18 11:10:10;;;;;;;;;3.75;3.00;;;;;25.88;47.22;101532.19;5016716;28;45588;-79
2021/07/18 11:12:43;;;;;;;;;4.00;4.00;;;;;25.89;47.54;101515.06;5016210;28;46693;-78
2021/07/18 11:15:30;;;;;;;;;3.50;3.50;;;;;26.00;46.70;101527.19;4998086;28;48683;-80
2021/07/18 11:18:12;;;;;;;;;4.75;4.00;;;;;26.02;47.48;101527.00;4997488;28;45711;-80
2021/07/18 11:20:47;;;;;;;;;4.00;3.50;;;;;26.08;45.73;101535.13;5016012;28;45770;-80
2021/07/18 11:23:20;;;;;;;;;4.00;3.25;;;;;26.13;46.49;101521.97;5016959;28;46336;-80
2021/07/18 11:25:59;;;;;;;;;6.50;4.25;;;;;26.17;45.95;101533.19;5022606;28;46743;-80
2021/07/18 11:28:49;;;;;;;;;4.00;4.00;;;;;26.19;44.45;101526.59;5004931;28;45640;-81
2021/07/18 11:31:20;;;;;;;;;4.00;3.00;;;;;26.22;45.41;101526.25;5004560;28;45839;-80
2021/07/18 11:33:55;;;;;;;;;4.00;4.00;;;;;26.26;45.81;101514.09;5022316;28;45489;-80
2021/07/18 11:36:33;;;;;;;;;5.00;5.00;;;;;26.31;45.62;101513.53;5018014;28;45830;-80
2021/07/18 11:38:59;;;;;;;;;5.75;5.00;;;;;26.37;46.25;101522.69;5015334;28;45653;-81
2021/07/18 11:41:29;;;;;;;;;4.75;4.75;;;;;26.42;44.27;101531.84;5015011;28;45615;-80
2021/07/18 11:44:03;;;;;;;;;4.50;4.00;;;;;26.44;44.74;101518.22;5015061;28;45615;-81
2021/07/18 11:46:40;;;;;;;;;5.00;5.00;;;;;26.45;44.00;101509.16;5014930;28;45827;-80
2021/07/18 11:49:07;;;;;;;;;4.50;4.50;;;;;26.49;44.71;101500.50;5014849;28;45530;-82
2021/07/18 11:51:38;;;;;;;;;5.25;5.25;;;;;26.39;44.42;101483.03;5014674;28;45880;-80
2021/07/18 11:54:04;;;;;;;;;4.75;4.00;;;;;26.56;44.99;101496.00;4996874;28;46935;-81
2021/07/18 11:56:38;;;;;;;;;4.75;4.25;;;;;26.54;44.74;101481.09;5015001;28;46696;-80
2021/07/18 11:59:14;;;;;;;;;5.00;4.00;;;;;26.66;45.18;101495.72;5015605;28;45595;-81
2021/07/18 12:01:42;;;;;;;;;5.50;5.00;;;;;26.75;45.54;101494.53;5015309;28;45788;-80
2021/07/18 12:04:15;;;;;;;;;5.75;5.00;;;;;26.79;45.41;101490.44;5015344;28;45634;-79
2021/07/18 12:06:41;;;;;;;;;5.50;5.50;;;;;26.84;44.44;101492.53;5014383;28;45802;-81
2021/07/18 12:09:14;;;;;;;;;5.00;5.00;;;;;26.87;44.20;101492.16;5014960;28;45858;-80
2021/07/18 12:11:40;;;;;;;;;6.00;6.00;;;;;26.88;44.96;101494.72;5014533;28;45715;-81
2021/07/18 12:14:10;;;;;;;;;7.00;7.00;;;;;26.92;44.76;101487.06;5014942;28;45635;-80
2021/07/18 12:16:38;;;;;;;;;5.00;4.00;;;;;26.94;44.12;101491.22;5014688;28;46906;-80
2021/07/18 12:19:05;;;;;;;;;7.50;6.25;;;;;26.97;44.49;101488.16;5014685;28;45877;-81
2021/07/18 12:21:33;;;;;;;;;8.75;7.00;;;;;27.00;43.28;101481.53;5014427;28;45806;-81
2021/07/18 12:24:12;;;;;;;;;6.00;6.00;;;;;27.03;43.13;101483.84;5014665;28;46386;-80
2021/07/18 12:26:38;;;;;;;;;5.50;5.50;;;;;27.06;44.46;101483.44;5014743;28;45540;-81